PAL132 RPLL-KORD
Flight info
| Callsign | PAL132 |
|---|---|
| Flight time | N/A |
| Altitude | 33000 |
| Route | CAB2R CAB DCT CUY DCT DADNU DCT LEBIX DCT YUGAP/N0501F350 DCT GANEK DCT LESKA DCT KALEK DCT TENAS/K0930F350 DCT DOHAE DCT INPID/K0913F370 DCT SOMUR DCT ABNAK DCT GAKRA DCT RUDNA DCT LUNEK DCT LANSA DCT ABILA/K0893F390 DCT GONAM DCT PEMID DCT BABAD DCT LISKI/N0494F390 DCT AGXAN DCT VOLOB DCT 69N30 DCT 67N20 DCT VOLOK/N0492F410 DCT URMOK DCT ALTAL DCT BEXOV |
| Aircraft | A359/H-SDE2E3GHIJ3J4J5LM1ORWXY/LB1D1 |
Departure
| Time | 2026-05-08 08:23 |
|---|---|
| Airport | Ninoy Aquino International Airport (RPLL) |
Arrival
| Time | N/A |
|---|---|
| Airport | Chicago O'Hare International Airport (KORD) |
| Time | Latitude | Longitude | Altitude | Speed | Heading |
|---|---|---|---|---|---|
| 2026-05-08 07:45 | 14.50503 | 121.00720 | 68 ft | 0 kts | 277° |
| 2026-05-08 08:10 | 14.50501 | 121.00736 | 67 ft | 4 kts | 277° |
| 2026-05-08 08:10 | 14.50498 | 121.00758 | 66 ft | 3 kts | 277° |
| 2026-05-08 08:10 | 14.50494 | 121.00785 | 64 ft | 4 kts | 272° |
| 2026-05-08 08:11 | 14.50498 | 121.00810 | 67 ft | 4 kts | 224° |
| 2026-05-08 08:11 | 14.50518 | 121.00816 | 64 ft | 4 kts | 163° |
| 2026-05-08 08:11 | 14.50543 | 121.00805 | 64 ft | 4 kts | 150° |
| 2026-05-08 08:11 | 14.50552 | 121.00800 | 64 ft | 0 kts | 150° |
| 2026-05-08 08:18 | 14.50551 | 121.00801 | 64 ft | 1 kts | 150° |
| 2026-05-08 08:19 | 14.50524 | 121.00816 | 64 ft | 7 kts | 151° |
| 2026-05-08 08:19 | 14.50483 | 121.00826 | 64 ft | 6 kts | 181° |
| 2026-05-08 08:19 | 14.50438 | 121.00818 | 70 ft | 8 kts | 191° |
| 2026-05-08 08:19 | 14.50382 | 121.00792 | 64 ft | 10 kts | 218° |
| 2026-05-08 08:20 | 14.50338 | 121.00725 | 65 ft | 13 kts | 239° |
| 2026-05-08 08:20 | 14.50290 | 121.00641 | 63 ft | 15 kts | 240° |
| 2026-05-08 08:20 | 14.50228 | 121.00531 | 69 ft | 20 kts | 239° |
| 2026-05-08 08:20 | 14.50159 | 121.00407 | 66 ft | 20 kts | 240° |
| 2026-05-08 08:21 | 14.50094 | 121.00287 | 64 ft | 19 kts | 240° |
| 2026-05-08 08:21 | 14.50029 | 121.00169 | 66 ft | 19 kts | 240° |
| 2026-05-08 08:21 | 14.49968 | 121.00060 | 70 ft | 13 kts | 240° |
| 2026-05-08 08:21 | 14.49927 | 120.99988 | 67 ft | 10 kts | 238° |
| 2026-05-08 08:22 | 14.49877 | 120.99970 | 64 ft | 8 kts | 167° |
| 2026-05-08 08:22 | 14.49829 | 120.99993 | 67 ft | 8 kts | 149° |
| 2026-05-08 08:22 | 14.49810 | 121.00043 | 64 ft | 9 kts | 82° |
| 2026-05-08 08:22 | 14.49842 | 121.00111 | 66 ft | 14 kts | 60° |
| 2026-05-08 08:23 | 14.49976 | 121.00351 | 64 ft | 70 kts | 60° |
| 2026-05-08 08:23 | 14.50320 | 121.00971 | 67 ft | 127 kts | 60° |
| 2026-05-08 08:23 | 14.50853 | 121.01932 | 85 ft | 177 kts | 62° |
| 2026-05-08 08:23 | 14.51452 | 121.02997 | 787 ft | 166 kts | 62° |
| 2026-05-08 08:24 | 14.51851 | 121.03686 | 1260 ft | 165 kts | 63° |
| 2026-05-08 08:24 | 14.52655 | 121.05096 | 1533 ft | 181 kts | 63° |
| 2026-05-08 08:24 | 14.53077 | 121.05877 | 1664 ft | 189 kts | 62° |
| 2026-05-08 08:24 | 14.53964 | 121.07509 | 1928 ft | 205 kts | 63° |
| 2026-05-08 08:25 | 14.54447 | 121.08395 | 2060 ft | 215 kts | 62° |
| 2026-05-08 08:25 | 14.55211 | 121.09785 | 2243 ft | 230 kts | 62° |
| 2026-05-08 08:25 | 14.56030 | 121.11268 | 2464 ft | 246 kts | 62° |
| 2026-05-08 08:25 | 14.56859 | 121.12815 | 2795 ft | 254 kts | 65° |
| 2026-05-08 08:26 | 14.57375 | 121.14595 | 3225 ft | 256 kts | 82° |
| 2026-05-08 08:26 | 14.57594 | 121.16373 | 3707 ft | 257 kts | 83° |
| 2026-05-08 08:26 | 14.57798 | 121.18272 | 4142 ft | 261 kts | 83° |
| 2026-05-08 08:26 | 14.58010 | 121.20130 | 4675 ft | 263 kts | 82° |
| 2026-05-08 08:27 | 14.58227 | 121.22010 | 5153 ft | 264 kts | 83° |
| 2026-05-08 08:27 | 14.58440 | 121.23900 | 5605 ft | 267 kts | 83° |
| 2026-05-08 08:27 | 14.58659 | 121.25817 | 6098 ft | 268 kts | 82° |
| 2026-05-08 08:27 | 14.58875 | 121.27724 | 6642 ft | 266 kts | 82° |
| 2026-05-08 08:28 | 14.59089 | 121.29623 | 7119 ft | 269 kts | 82° |
| 2026-05-08 08:28 | 14.59307 | 121.31560 | 7478 ft | 275 kts | 82° |
| 2026-05-08 08:28 | 14.59530 | 121.33523 | 8060 ft | 274 kts | 82° |
| 2026-05-08 08:28 | 14.59745 | 121.35451 | 8632 ft | 274 kts | 82° |
| 2026-05-08 08:29 | 14.59970 | 121.37445 | 9106 ft | 278 kts | 82° |
| 2026-05-08 08:29 | 14.60196 | 121.39455 | 9526 ft | 283 kts | 82° |
| 2026-05-08 08:29 | 14.60421 | 121.41472 | 10099 ft | 282 kts | 82° |
| 2026-05-08 08:29 | 14.60646 | 121.43478 | 10454 ft | 291 kts | 82° |
| 2026-05-08 08:30 | 14.60884 | 121.45596 | 10674 ft | 303 kts | 82° |